createdAt,value
2023-04-23T00:06:13.120Z,30.90
2023-04-23T00:16:22.117Z,30.20
2023-04-23T00:26:27.972Z,28.80
2023-04-23T00:36:35.134Z,28.90
2023-04-23T00:56:49.842Z,24.70
2023-04-23T01:06:58.245Z,24.40
2023-04-23T01:17:06.144Z,27.00
2023-04-23T01:27:14.152Z,24.90
2023-04-23T01:37:22.263Z,21.00
2023-04-23T01:47:29.749Z,18.70
2023-04-23T01:57:36.957Z,17.50
2023-04-23T02:07:45.334Z,17.20
2023-04-23T02:17:52.628Z,15.90
2023-04-23T02:28:00.143Z,16.10
2023-04-23T02:38:08.136Z,16.30
2023-04-23T02:48:15.447Z,16.70
2023-04-23T02:58:22.477Z,17.30
2023-04-23T03:08:29.935Z,18.30
2023-04-23T03:18:36.982Z,18.40
2023-04-23T03:28:43.140Z,19.40
2023-04-23T03:38:50.759Z,17.70
2023-04-23T03:48:57.778Z,16.40
2023-04-23T03:59:04.266Z,17.40
2023-04-23T04:09:11.411Z,16.70
2023-04-23T04:19:18.948Z,16.60
2023-04-23T04:29:26.563Z,17.20
2023-04-23T04:39:33.537Z,19.40
2023-04-23T04:49:40.556Z,20.10
2023-04-23T04:59:48.056Z,17.20
2023-04-23T05:09:55.752Z,18.20
2023-04-23T05:20:02.319Z,19.30
2023-04-23T05:30:12.384Z,18.90
2023-04-23T05:40:19.615Z,18.10
2023-04-23T05:50:26.758Z,17.80
2023-04-23T06:00:35.665Z,18.30
2023-04-23T06:10:42.908Z,16.90
2023-04-23T06:20:48.824Z,15.80
2023-04-23T06:30:56.334Z,14.80
2023-04-23T06:41:04.173Z,14.60
2023-04-23T06:51:11.686Z,13.10
2023-04-23T07:01:23.461Z,10.80
2023-04-23T07:11:31.985Z,9.30
2023-04-23T07:21:39.001Z,9.30
2023-04-23T07:31:46.671Z,8.10
2023-04-23T07:41:54.706Z,7.40
2023-04-23T07:52:01.939Z,6.30
2023-04-23T08:02:10.234Z,6.90
2023-04-23T08:12:18.748Z,5.90
2023-04-23T08:22:26.233Z,6.10
2023-04-23T08:42:38.800Z,5.60
2023-04-23T08:52:57.001Z,5.10
2023-04-23T09:03:05.364Z,5.30
2023-04-23T09:13:15.727Z,4.40
2023-04-23T09:23:24.655Z,5.00
2023-04-23T09:33:33.075Z,5.00
2023-04-23T09:43:42.682Z,4.40
2023-04-23T09:53:49.969Z,4.20
2023-04-23T10:03:56.895Z,4.10
2023-04-23T10:14:05.938Z,5.30
2023-04-23T10:24:14.878Z,3.90
2023-04-23T10:34:22.393Z,3.50
2023-04-23T10:55:03.548Z,3.30
2023-04-23T11:05:10.951Z,3.40
2023-04-23T11:15:20.421Z,3.80
2023-04-23T11:25:30.722Z,4.30
2023-04-23T11:35:38.394Z,3.90
2023-04-23T11:45:46.358Z,4.70
2023-04-23T11:55:56.699Z,4.20
2023-04-23T12:06:03.081Z,4.30
2023-04-23T12:16:11.179Z,3.90
2023-04-23T12:26:21.538Z,4.10
2023-04-23T12:36:30.968Z,4.00
2023-04-23T12:46:38.382Z,4.20
2023-04-23T12:56:45.486Z,4.10
2023-04-23T13:06:52.696Z,4.40
2023-04-23T13:17:00.276Z,4.40
2023-04-23T13:27:07.856Z,4.30
2023-04-23T13:47:20.818Z,3.70
2023-04-23T13:57:28.082Z,3.70
2023-04-23T14:07:35.500Z,4.30
2023-04-23T14:17:43.546Z,3.10
2023-04-23T14:27:56.824Z,4.00
2023-04-23T14:38:04.175Z,3.50
2023-04-23T14:48:11.974Z,3.50
2023-04-23T14:58:19.087Z,3.70
2023-04-23T15:08:26.840Z,3.50
2023-04-23T15:18:34.408Z,4.20
2023-04-23T15:38:47.837Z,4.50
2023-04-23T15:48:55.160Z,4.60
2023-04-23T15:59:02.488Z,4.50
2023-04-23T16:09:09.953Z,3.70
2023-04-23T16:19:18.118Z,3.90
2023-04-23T16:39:30.065Z,4.30
2023-04-23T16:49:37.741Z,4.70
2023-04-23T16:59:44.896Z,5.50
2023-04-23T17:09:52.082Z,4.90
2023-04-23T17:19:59.360Z,7.10
2023-04-23T17:30:07.968Z,6.80
2023-04-23T17:40:12.645Z,6.30
2023-04-23T17:50:19.003Z,7.60
2023-04-23T18:00:24.132Z,6.30
2023-04-23T18:10:31.389Z,8.70
2023-04-23T18:20:39.224Z,9.30
2023-04-23T18:30:46.479Z,10.30
2023-04-23T18:40:54.189Z,12.60
2023-04-23T18:51:05.431Z,30.30
2023-04-23T19:01:12.694Z,37.40
2023-04-23T19:11:20.073Z,32.90
2023-04-23T19:21:27.920Z,73.30
2023-04-23T19:31:35.029Z,22.50
2023-04-23T19:41:42.413Z,15.40
2023-04-23T19:51:50.415Z,17.90
2023-04-23T20:01:56.433Z,17.00
2023-04-23T20:12:04.245Z,18.60
2023-04-23T20:32:18.515Z,17.00
2023-04-23T20:52:34.342Z,17.20
2023-04-23T21:02:42.218Z,19.00
2023-04-23T21:12:49.076Z,21.30
2023-04-23T21:22:55.274Z,23.80
2023-04-23T21:33:01.496Z,23.90
2023-04-23T21:43:09.952Z,21.60
2023-04-23T21:53:17.389Z,25.00
2023-04-23T22:03:37.965Z,25.20
2023-04-23T22:13:46.508Z,25.70
2023-04-23T22:23:53.550Z,26.10
2023-04-23T22:33:59.658Z,23.30
2023-04-23T22:44:07.103Z,20.80
2023-04-23T22:54:14.488Z,19.60
2023-04-23T23:04:21.593Z,18.40
2023-04-23T23:14:26.832Z,18.10
2023-04-23T23:24:35.450Z,22.60
2023-04-23T23:34:42.890Z,27.30
2023-04-23T23:44:50.187Z,34.00
2023-04-23T23:54:57.344Z,36.20
